Portada
METAR-TAF:

METAR-TAF

Aeroports :

Sainte-Marie, Madagascar

latitud: 17-05S, longitud: 049-49E, altitud: 2 m

Observació

L'informe es va fer fa 36 minuts, a les 12:00 UTC
Vent 4 kt del Sud
Temperatura 28°C
Humitat 58%
Pressió 1018 hPa
Visibilitat 10 km o més
Escasses núvols a una alçada de 1700 ft

METAR: FMMS 251200Z 17004KT 9999 FEW017 28/19 Q1018

Hora: 15:36 (12:36 UTC)

Pronòstic

L'informe es va fer fa 1 hora i 36 minuts, a les 11:00 UTC
Pronòstic vàlid del 25 a les 12 UTC al 26 a les 12 UTC
Vent 12 kt del Sud
Visibilitat 10 km o més
Núvols disperses a una alçada de 1700 ft
Núvols disperses a una alçada de 3300 ft
Probabilitat 40% :
Temporalment
l' 25 a les 18 UTC al 26 a les 03 UTC
Visibilitat: 4000 m
xàfecs de pluja

TAF: FMMS 251100Z 2512/2612 18012KT 9999 SCT017 SCT033 PROB40 TEMPO 2518/2603 4000 SHRA

Observacions i pronòstics meteorològics de més de 4000 aeroports (METAR i TAF).

Les estacions disponibles són els punts grocs i vermells al mapa.

Posi el ratolí al punt desitjat per veure el nom de l'estació.

Feu clic per veure les observacions i els pronòstics meteorològics.

Per canviar el mapa: feu clic els botons verds amb una creu de color negre per apropar; al botó verd amb un guió per allunyar la imatge; o en les fletxes verdes per a mapes adjacents.


METAR-TAF: